createdAt,value
2023-05-07T00:01:27.017Z,2.98
2023-05-07T00:03:53.683Z,2.62
2023-05-07T00:06:20.378Z,2.77
2023-05-07T00:08:46.956Z,2.82
2023-05-07T00:11:13.445Z,2.83
2023-05-07T00:13:39.958Z,2.78
2023-05-07T00:16:06.585Z,2.97
2023-05-07T00:18:33.084Z,2.86
2023-05-07T00:20:59.688Z,2.73
2023-05-07T00:23:26.099Z,3.05
2023-05-07T00:25:52.678Z,2.72
2023-05-07T00:28:19.169Z,2.57
2023-05-07T00:30:46.723Z,2.75
2023-05-07T00:33:13.476Z,2.57
2023-05-07T00:35:40.289Z,2.47
2023-05-07T00:38:06.863Z,2.57
2023-05-07T00:40:33.593Z,2.74
2023-05-07T00:43:00.881Z,2.50
2023-05-07T00:45:29.876Z,2.48
2023-05-07T00:48:00.699Z,2.56
2023-05-07T00:50:28.971Z,2.83
2023-05-07T00:52:56.158Z,2.90
2023-05-07T00:55:24.820Z,2.89
2023-05-07T00:57:52.138Z,2.75
2023-05-07T01:03:12.774Z,2.64
2023-05-07T01:05:39.843Z,2.74
2023-05-07T01:08:07.843Z,2.71
2023-05-07T01:10:34.614Z,2.71
2023-05-07T01:13:02.957Z,2.73
2023-05-07T01:15:29.871Z,2.84
2023-05-07T01:17:57.914Z,2.64
2023-05-07T01:20:26.299Z,2.87
2023-05-07T01:22:54.153Z,2.53
2023-05-07T01:25:20.813Z,2.63
2023-05-07T01:27:47.953Z,2.61
2023-05-07T01:30:14.636Z,2.39
2023-05-07T01:32:52.007Z,2.40
2023-05-07T01:35:25.410Z,2.68
2023-05-07T01:37:52.832Z,2.57
2023-05-07T01:40:20.015Z,2.38
2023-05-07T01:42:49.213Z,2.70
2023-05-07T01:45:15.858Z,2.64
2023-05-07T01:47:44.952Z,2.84
2023-05-07T01:50:13.323Z,2.75
2023-05-07T01:52:40.240Z,2.83
2023-05-07T01:55:08.036Z,2.71
2023-05-07T01:57:34.545Z,2.64
2023-05-07T02:00:01.039Z,2.77
2023-05-07T02:02:27.661Z,2.60
2023-05-07T02:04:54.408Z,2.36
2023-05-07T02:07:20.900Z,2.72
2023-05-07T02:09:47.339Z,2.74
2023-05-07T02:12:13.851Z,2.48
2023-05-07T02:14:40.327Z,2.75
2023-05-07T02:17:06.909Z,2.53
2023-05-07T02:19:33.422Z,2.71
2023-05-07T02:22:00.061Z,2.72
2023-05-07T02:24:26.567Z,2.68
2023-05-07T02:26:53.023Z,2.65
2023-05-07T02:29:19.531Z,2.76
2023-05-07T02:31:46.230Z,2.70
2023-05-07T02:34:12.770Z,2.76
2023-05-07T02:36:39.354Z,2.79
2023-05-07T02:39:05.900Z,3.02
2023-05-07T02:41:32.926Z,2.80
2023-05-07T02:43:59.506Z,2.75
2023-05-07T02:46:26.140Z,2.93
2023-05-07T02:48:52.666Z,2.78
2023-05-07T02:51:24.137Z,2.71
2023-05-07T02:53:52.565Z,2.73
2023-05-07T02:56:19.179Z,2.78
2023-05-07T02:58:45.652Z,2.87
2023-05-07T03:01:13.043Z,2.85
2023-05-07T03:03:39.548Z,2.70
2023-05-07T03:06:07.607Z,2.60
2023-05-07T03:08:34.106Z,2.79
2023-05-07T03:11:00.731Z,2.64
2023-05-07T03:13:27.259Z,2.59
2023-05-07T03:15:53.813Z,2.98
2023-05-07T03:18:20.847Z,2.70
2023-05-07T03:20:52.792Z,2.68
2023-05-07T03:23:19.527Z,2.96
2023-05-07T03:25:46.142Z,3.16
2023-05-07T03:28:12.589Z,3.00
2023-05-07T03:30:39.070Z,2.92
2023-05-07T03:33:05.644Z,2.96
2023-05-07T03:35:32.212Z,2.77
2023-05-07T03:37:58.676Z,3.11
2023-05-07T03:40:25.234Z,3.09
2023-05-07T03:42:51.873Z,2.96
2023-05-07T03:45:18.852Z,3.16
2023-05-07T03:47:45.450Z,3.09
2023-05-07T03:50:12.313Z,2.98
2023-05-07T03:52:39.098Z,3.01
2023-05-07T03:55:07.149Z,2.70
2023-05-07T03:57:33.707Z,2.91
2023-05-07T04:00:06.559Z,3.10
2023-05-07T04:02:34.461Z,2.86
2023-05-07T04:05:06.879Z,2.98
2023-05-07T04:07:35.144Z,2.81
2023-05-07T04:10:01.668Z,2.94
2023-05-07T04:12:28.334Z,2.96
2023-05-07T04:14:55.222Z,3.25
2023-05-07T04:17:21.734Z,2.97
2023-05-07T04:19:48.255Z,2.99
2023-05-07T04:22:14.784Z,2.95
2023-05-07T04:24:41.335Z,2.91
2023-05-07T04:27:07.742Z,3.39
2023-05-07T04:29:34.438Z,3.10
2023-05-07T04:32:01.272Z,3.05
2023-05-07T04:34:29.932Z,2.62
2023-05-07T04:37:00.402Z,3.06
2023-05-07T04:39:26.954Z,2.75
2023-05-07T04:41:53.385Z,2.90
2023-05-07T04:44:19.798Z,3.01
2023-05-07T04:46:46.214Z,3.12
2023-05-07T04:49:13.009Z,3.13
2023-05-07T04:51:44.884Z,2.99
2023-05-07T04:54:11.583Z,3.04
2023-05-07T04:56:38.062Z,3.21
2023-05-07T04:59:04.564Z,3.21
2023-05-07T05:01:31.127Z,3.34
2023-05-07T05:03:57.645Z,4.05
2023-05-07T05:06:24.125Z,5.18
2023-05-07T05:08:50.676Z,4.27
2023-05-07T05:11:17.115Z,4.36
2023-05-07T05:13:43.622Z,4.95
2023-05-07T05:16:10.086Z,4.98
2023-05-07T05:18:36.897Z,5.07
2023-05-07T05:21:03.642Z,4.97
2023-05-07T05:23:30.434Z,3.85
2023-05-07T05:25:58.707Z,4.62
2023-05-07T05:28:26.177Z,4.48
2023-05-07T05:30:52.979Z,3.68
2023-05-07T05:33:19.618Z,3.78
2023-05-07T05:35:46.140Z,4.05
2023-05-07T05:38:12.755Z,3.82
2023-05-07T05:40:39.336Z,3.54
2023-05-07T05:43:07.483Z,3.98
2023-05-07T05:45:34.015Z,4.03
2023-05-07T05:48:01.726Z,3.77
2023-05-07T05:50:28.323Z,4.66
2023-05-07T05:52:54.916Z,4.45
2023-05-07T05:55:21.858Z,4.47
2023-05-07T05:57:48.967Z,4.21
2023-05-07T06:00:15.781Z,4.66
2023-05-07T06:02:43.737Z,4.52
2023-05-07T06:05:10.786Z,3.92
2023-05-07T06:07:37.846Z,4.42
2023-05-07T06:10:06.146Z,3.82
2023-05-07T06:12:32.665Z,3.48
2023-05-07T06:14:59.293Z,4.34
2023-05-07T06:17:26.047Z,4.52
2023-05-07T06:19:53.487Z,4.03
2023-05-07T06:22:20.293Z,3.81
2023-05-07T06:24:47.070Z,3.96
2023-05-07T06:27:13.902Z,3.86
2023-05-07T06:29:40.629Z,3.90
2023-05-07T06:32:09.300Z,3.73
2023-05-07T06:34:36.273Z,3.59
2023-05-07T06:37:03.341Z,4.12
2023-05-07T06:39:30.059Z,3.45
2023-05-07T06:41:56.556Z,3.45
2023-05-07T06:44:23.286Z,3.52
2023-05-07T06:46:53.137Z,3.75
2023-05-07T06:49:19.778Z,3.43
2023-05-07T06:51:46.447Z,3.30
2023-05-07T06:54:13.064Z,3.87
2023-05-07T06:56:41.266Z,4.43
2023-05-07T06:59:08.020Z,3.48
2023-05-07T07:01:34.625Z,4.10
2023-05-07T07:04:01.586Z,3.91
2023-05-07T07:06:28.371Z,4.25
2023-05-07T07:08:54.883Z,3.75
2023-05-07T07:11:21.785Z,3.74
2023-05-07T07:13:48.337Z,3.80
2023-05-07T07:16:15.216Z,3.92
2023-05-07T07:18:41.762Z,3.54
2023-05-07T07:21:08.387Z,3.81
2023-05-07T07:23:34.801Z,3.94
2023-05-07T07:26:01.486Z,3.74
2023-05-07T07:28:28.382Z,3.83
2023-05-07T07:30:55.083Z,3.90
2023-05-07T07:33:21.502Z,3.92
2023-05-07T07:35:48.984Z,4.07
2023-05-07T07:38:15.425Z,4.02
2023-05-07T07:40:41.925Z,4.22
2023-05-07T07:43:10.952Z,4.12
2023-05-07T07:45:38.151Z,4.07
2023-05-07T07:48:05.634Z,4.33
2023-05-07T07:50:43.627Z,4.24
2023-05-07T07:53:11.708Z,4.29
2023-05-07T07:55:41.354Z,4.44
2023-05-07T07:58:07.910Z,4.40
2023-05-07T08:00:34.518Z,4.34
2023-05-07T08:03:01.751Z,4.41
2023-05-07T08:05:28.974Z,4.49
2023-05-07T08:07:55.455Z,4.40
2023-05-07T08:10:22.852Z,4.55
2023-05-07T08:12:50.748Z,4.33
2023-05-07T08:15:18.720Z,4.54
2023-05-07T08:17:45.295Z,4.50
2023-05-07T08:20:11.966Z,4.29
2023-05-07T08:22:43.330Z,4.32
2023-05-07T08:25:10.528Z,4.24
2023-05-07T08:27:37.457Z,4.28
2023-05-07T08:30:05.344Z,4.45
2023-05-07T08:32:31.784Z,4.34
2023-05-07T08:34:59.431Z,4.36
2023-05-07T08:37:26.051Z,4.56
2023-05-07T08:39:52.569Z,4.20
2023-05-07T08:42:24.024Z,4.52
2023-05-07T08:44:56.561Z,4.49
2023-05-07T08:47:31.980Z,4.55
2023-05-07T08:49:59.528Z,4.41
2023-05-07T08:52:28.066Z,4.51
2023-05-07T08:54:55.853Z,4.32
2023-05-07T08:57:24.335Z,4.47
2023-05-07T08:59:51.058Z,4.64
2023-05-07T09:02:19.534Z,4.42
2023-05-07T09:04:54.823Z,4.84
2023-05-07T09:07:22.397Z,4.57
2023-05-07T09:09:50.309Z,4.70
2023-05-07T09:12:19.406Z,4.77
2023-05-07T09:14:47.588Z,4.85
2023-05-07T09:17:16.271Z,4.61
2023-05-07T09:19:46.719Z,4.76
2023-05-07T09:22:13.870Z,5.02
2023-05-07T09:24:41.070Z,4.94
2023-05-07T09:27:13.030Z,5.17
2023-05-07T09:29:40.645Z,5.08
2023-05-07T09:32:09.522Z,4.78
2023-05-07T09:34:38.746Z,4.76
2023-05-07T09:37:06.960Z,4.65
2023-05-07T09:39:43.028Z,4.68
2023-05-07T09:42:15.998Z,5.06
2023-05-07T09:44:46.239Z,5.05
2023-05-07T09:47:21.933Z,5.57
2023-05-07T09:49:51.730Z,5.48
2023-05-07T09:52:20.315Z,5.13
2023-05-07T09:54:54.843Z,5.38
2023-05-07T09:57:25.771Z,5.16
2023-05-07T09:59:55.510Z,5.04
2023-05-07T10:02:27.417Z,5.04
2023-05-07T10:04:56.019Z,5.54
2023-05-07T10:07:23.692Z,5.30
2023-05-07T10:09:55.588Z,5.01
2023-05-07T10:12:25.321Z,4.60
2023-05-07T10:15:01.144Z,4.92
2023-05-07T10:17:27.728Z,4.75
2023-05-07T10:19:55.921Z,4.69
2023-05-07T10:22:28.585Z,4.60
2023-05-07T10:25:03.330Z,4.87
2023-05-07T10:27:31.250Z,4.70
2023-05-07T10:30:32.349Z,4.97
2023-05-07T10:33:07.927Z,4.94
2023-05-07T10:35:44.460Z,5.05
2023-05-07T10:38:11.878Z,5.04
2023-05-07T10:40:38.943Z,5.22
2023-05-07T10:43:09.495Z,5.45
2023-05-07T10:45:38.222Z,5.38
2023-05-07T10:48:30.323Z,5.34
2023-05-07T10:51:22.964Z,4.96
2023-05-07T10:53:49.647Z,5.28
2023-05-07T10:56:20.186Z,5.35
2023-05-07T10:58:50.484Z,5.25
2023-05-07T11:01:59.310Z,5.66
2023-05-07T11:04:28.628Z,5.52
2023-05-07T11:07:27.032Z,4.91
2023-05-07T11:09:53.528Z,4.79
2023-05-07T11:12:40.263Z,4.95
2023-05-07T11:15:10.740Z,4.67
2023-05-07T11:18:01.031Z,5.18
2023-05-07T11:20:48.164Z,5.30
2023-05-07T11:23:34.586Z,5.28
2023-05-07T11:26:05.439Z,5.01
2023-05-07T11:28:42.350Z,5.28
2023-05-07T11:31:11.670Z,4.78
2023-05-07T11:33:40.859Z,4.79
2023-05-07T11:36:10.946Z,5.06
2023-05-07T11:38:39.871Z,4.97
2023-05-07T11:41:09.009Z,5.50
2023-05-07T11:43:37.030Z,5.24
2023-05-07T11:46:11.924Z,4.95
2023-05-07T11:48:40.080Z,4.97
2023-05-07T11:51:10.332Z,4.92
2023-05-07T11:53:43.189Z,4.58
2023-05-07T11:56:14.045Z,4.23
2023-05-07T11:58:42.593Z,4.80
2023-05-07T12:01:12.295Z,4.83
2023-05-07T12:03:43.756Z,5.00
2023-05-07T12:06:12.850Z,5.77
2023-05-07T12:08:42.820Z,5.91
2023-05-07T12:11:17.136Z,5.86
2023-05-07T12:13:44.211Z,6.12
2023-05-07T12:16:12.201Z,6.41
2023-05-07T12:18:39.272Z,6.08
2023-05-07T12:21:07.936Z,6.02
2023-05-07T12:23:38.973Z,6.02
2023-05-07T12:26:07.584Z,5.99
2023-05-07T12:28:40.643Z,6.26
2023-05-07T12:31:09.339Z,5.73
2023-05-07T12:33:43.048Z,6.15
2023-05-07T12:36:10.025Z,6.06
2023-05-07T12:38:39.658Z,6.57
2023-05-07T12:41:09.243Z,6.18
2023-05-07T12:43:35.818Z,6.45
2023-05-07T12:46:07.374Z,5.84
2023-05-07T12:48:34.682Z,6.08
2023-05-07T12:51:02.992Z,6.09
2023-05-07T12:53:34.290Z,6.16
2023-05-07T12:56:01.100Z,6.33
2023-05-07T12:58:28.827Z,6.14
2023-05-07T13:01:01.115Z,6.03
2023-05-07T13:03:32.875Z,5.42
2023-05-07T13:06:04.613Z,6.19
2023-05-07T13:08:35.870Z,5.64
2023-05-07T13:11:05.502Z,5.64
2023-05-07T13:13:36.586Z,5.81
2023-05-07T13:16:08.953Z,5.54
2023-05-07T13:18:36.334Z,5.31
2023-05-07T13:21:03.248Z,5.43
2023-05-07T13:23:30.403Z,5.56
2023-05-07T13:25:57.528Z,5.61
2023-05-07T13:28:25.581Z,5.52
2023-05-07T13:30:52.830Z,5.42
2023-05-07T13:33:19.660Z,5.58
2023-05-07T13:35:46.309Z,5.64
2023-05-07T13:38:12.746Z,5.20
2023-05-07T13:40:40.249Z,5.12
2023-05-07T13:43:07.743Z,4.74
2023-05-07T13:45:35.508Z,4.82
2023-05-07T13:48:02.484Z,5.26
2023-05-07T13:50:30.685Z,5.58
2023-05-07T13:52:57.272Z,5.56
2023-05-07T13:55:25.079Z,5.39
2023-05-07T13:57:59.728Z,5.30
2023-05-07T14:00:28.523Z,5.18
2023-05-07T14:02:57.168Z,5.14
2023-05-07T14:05:24.559Z,5.27
2023-05-07T14:07:52.790Z,5.50
2023-05-07T14:10:22.211Z,5.67
2023-05-07T14:12:53.641Z,5.12
2023-05-07T14:15:20.280Z,4.59
2023-05-07T14:17:47.747Z,4.13
2023-05-07T14:20:14.531Z,4.25
2023-05-07T14:22:41.370Z,4.68
2023-05-07T14:25:10.404Z,4.86
2023-05-07T14:27:37.342Z,4.77
2023-05-07T14:30:06.183Z,4.95
2023-05-07T14:32:34.672Z,5.00
2023-05-07T14:35:01.298Z,4.49
2023-05-07T14:37:30.347Z,4.38
2023-05-07T14:39:59.204Z,5.12
2023-05-07T14:42:27.308Z,5.00
2023-05-07T14:44:53.972Z,4.89
2023-05-07T14:47:20.466Z,5.14
2023-05-07T14:49:46.925Z,5.23
2023-05-07T14:52:13.431Z,5.13
2023-05-07T14:54:40.020Z,4.99
2023-05-07T14:57:09.472Z,4.81
2023-05-07T14:59:36.252Z,4.96
2023-05-07T15:02:06.249Z,4.96
2023-05-07T15:04:39.130Z,4.84
2023-05-07T15:07:05.648Z,4.59
2023-05-07T15:09:32.129Z,4.64
2023-05-07T15:12:00.378Z,4.87
2023-05-07T15:14:26.960Z,4.88
2023-05-07T15:16:53.583Z,4.90
2023-05-07T15:19:20.248Z,4.85
2023-05-07T15:21:46.729Z,5.04
2023-05-07T15:24:13.196Z,4.84
2023-05-07T15:26:50.387Z,4.96
2023-05-07T15:29:16.834Z,5.01
2023-05-07T15:31:43.652Z,4.91
2023-05-07T15:34:12.410Z,4.78
2023-05-07T15:36:39.037Z,4.90
2023-05-07T15:39:05.805Z,5.01
2023-05-07T15:41:32.375Z,5.09
2023-05-07T15:43:59.206Z,4.90
2023-05-07T15:46:27.076Z,4.60
2023-05-07T15:48:55.700Z,4.85
2023-05-07T15:51:23.320Z,4.71
2023-05-07T15:53:51.958Z,4.67
2023-05-07T15:56:18.531Z,4.79
2023-05-07T15:58:44.946Z,4.43
2023-05-07T16:01:11.710Z,4.81
2023-05-07T16:03:39.186Z,5.01
2023-05-07T16:06:06.618Z,4.67
2023-05-07T16:08:33.826Z,4.74
2023-05-07T16:11:00.450Z,4.81
2023-05-07T16:13:27.076Z,5.16
2023-05-07T16:15:58.951Z,5.01
2023-05-07T16:18:26.018Z,5.05
2023-05-07T16:20:52.699Z,5.11
2023-05-07T16:23:19.321Z,5.36
2023-05-07T16:25:45.909Z,5.66
2023-05-07T16:28:12.466Z,5.61
2023-05-07T16:30:42.198Z,5.45
2023-05-07T16:33:09.045Z,5.08
2023-05-07T16:35:35.626Z,5.46
2023-05-07T16:38:10.103Z,5.33
2023-05-07T16:40:39.967Z,4.97
2023-05-07T16:43:06.553Z,4.76
2023-05-07T16:45:33.052Z,4.83
2023-05-07T16:47:59.758Z,4.84
2023-05-07T16:50:26.282Z,4.74
2023-05-07T16:52:52.698Z,4.41
2023-05-07T16:55:19.312Z,4.40
2023-05-07T16:57:46.973Z,4.45
2023-05-07T17:00:14.619Z,4.22
2023-05-07T17:02:44.857Z,4.14
2023-05-07T17:05:11.620Z,4.43
2023-05-07T17:07:38.686Z,4.12
2023-05-07T17:10:06.441Z,4.22
2023-05-07T17:12:34.704Z,4.27
2023-05-07T17:15:01.420Z,4.27
2023-05-07T17:17:27.902Z,4.04
2023-05-07T17:19:54.650Z,4.29
2023-05-07T17:22:21.527Z,3.85
2023-05-07T17:24:51.545Z,4.20
2023-05-07T17:27:18.828Z,4.28
2023-05-07T17:29:45.335Z,4.12
2023-05-07T17:32:11.876Z,4.14
2023-05-07T17:34:46.235Z,4.24
2023-05-07T17:37:13.083Z,4.36
2023-05-07T17:39:39.576Z,3.85
2023-05-07T17:42:06.460Z,3.64
2023-05-07T17:44:34.808Z,3.50
2023-05-07T17:47:01.755Z,3.30
2023-05-07T17:49:31.296Z,3.50
2023-05-07T17:51:58.028Z,3.30
2023-05-07T17:54:26.845Z,3.22
2023-05-07T17:56:53.716Z,3.34
2023-05-07T17:59:20.413Z,3.28
2023-05-07T18:01:46.966Z,3.49
2023-05-07T18:04:13.584Z,3.53
2023-05-07T18:06:42.349Z,3.95
2023-05-07T18:09:09.526Z,3.95
2023-05-07T18:11:37.630Z,4.26
2023-05-07T18:14:05.016Z,4.46
2023-05-07T18:16:31.625Z,5.06
2023-05-07T18:18:58.314Z,5.24
2023-05-07T18:21:25.084Z,4.80
2023-05-07T18:23:52.115Z,4.78
2023-05-07T18:26:18.793Z,4.04
2023-05-07T18:28:46.026Z,3.52
2023-05-07T18:31:12.600Z,3.10
2023-05-07T18:33:39.260Z,2.75
2023-05-07T18:36:06.908Z,3.02
2023-05-07T18:38:34.101Z,2.97
2023-05-07T18:41:04.278Z,2.69
2023-05-07T18:43:31.074Z,2.60
2023-05-07T18:45:58.588Z,2.33
2023-05-07T18:48:25.433Z,2.54
2023-05-07T18:50:52.551Z,2.60
2023-05-07T18:53:19.190Z,2.34
2023-05-07T18:55:50.786Z,2.47
2023-05-07T18:58:19.755Z,2.34
2023-05-07T19:00:49.992Z,2.32
2023-05-07T19:03:17.063Z,2.39
2023-05-07T19:05:45.681Z,2.68
2023-05-07T19:08:13.020Z,2.50
2023-05-07T19:10:39.628Z,2.46
2023-05-07T19:13:06.607Z,2.40
2023-05-07T19:15:33.622Z,2.48
2023-05-07T19:18:00.355Z,2.22
2023-05-07T19:20:27.050Z,2.45
2023-05-07T19:22:53.555Z,2.36
2023-05-07T19:25:20.250Z,2.68
2023-05-07T19:27:48.256Z,2.89
2023-05-07T19:30:19.328Z,2.74
2023-05-07T19:32:46.020Z,3.00
2023-05-07T19:35:12.957Z,2.56
2023-05-07T19:37:40.089Z,3.10
2023-05-07T19:40:08.654Z,3.50
2023-05-07T19:42:35.451Z,3.29
2023-05-07T19:45:04.224Z,3.43
2023-05-07T19:47:31.781Z,6.52
2023-05-07T19:49:58.587Z,5.19
2023-05-07T19:52:26.743Z,5.90
2023-05-07T19:54:53.842Z,5.72
2023-05-07T19:57:20.425Z,4.75
2023-05-07T19:59:47.204Z,4.59
2023-05-07T20:02:14.007Z,4.32
2023-05-07T20:04:40.579Z,3.94
2023-05-07T20:07:07.684Z,3.81
2023-05-07T20:09:34.335Z,3.64
2023-05-07T20:12:01.082Z,3.62
2023-05-07T20:14:28.120Z,3.33
2023-05-07T20:16:55.159Z,3.34
2023-05-07T20:19:21.906Z,3.25
2023-05-07T20:21:48.479Z,3.17
2023-05-07T20:24:15.075Z,3.08
2023-05-07T20:26:41.494Z,3.23
2023-05-07T20:29:08.160Z,3.04
2023-05-07T20:31:35.269Z,2.78
2023-05-07T20:34:02.356Z,3.08
2023-05-07T20:36:29.357Z,3.21
2023-05-07T20:38:56.110Z,3.02
2023-05-07T20:41:25.043Z,3.08
2023-05-07T20:43:52.180Z,3.19
2023-05-07T20:46:22.500Z,3.01
2023-05-07T20:48:49.683Z,2.88
2023-05-07T20:51:16.301Z,3.24
2023-05-07T20:53:44.339Z,3.08
2023-05-07T20:56:12.862Z,2.90
2023-05-07T20:58:39.345Z,3.14
2023-05-07T21:01:06.483Z,3.21
2023-05-07T21:03:33.029Z,3.11
2023-05-07T21:06:00.524Z,3.23
2023-05-07T21:08:27.636Z,3.49
2023-05-07T21:10:55.475Z,3.39
2023-05-07T21:13:23.303Z,3.34
2023-05-07T21:15:50.423Z,3.38
2023-05-07T21:18:18.694Z,3.49
2023-05-07T21:20:45.298Z,3.67
2023-05-07T21:23:11.852Z,3.65
2023-05-07T21:25:39.204Z,3.87
2023-05-07T21:28:09.277Z,3.99
2023-05-07T21:30:37.034Z,3.84
2023-05-07T21:33:06.105Z,3.71
2023-05-07T21:35:35.566Z,3.69
2023-05-07T21:38:02.704Z,4.03
2023-05-07T21:40:29.285Z,3.81
2023-05-07T21:42:56.091Z,3.90
2023-05-07T21:45:22.691Z,3.78
2023-05-07T21:47:49.198Z,3.91
2023-05-07T21:50:16.069Z,3.91
2023-05-07T21:52:43.086Z,3.86
2023-05-07T21:55:10.177Z,4.22
2023-05-07T21:57:37.877Z,4.46
2023-05-07T22:00:05.122Z,4.07
2023-05-07T22:02:32.281Z,4.36
2023-05-07T22:04:59.413Z,4.33
2023-05-07T22:07:26.095Z,4.30
2023-05-07T22:09:52.591Z,4.20
2023-05-07T22:12:19.143Z,4.41
2023-05-07T22:14:46.056Z,4.52
2023-05-07T22:17:12.653Z,4.66
2023-05-07T22:19:39.262Z,4.88
2023-05-07T22:22:06.021Z,5.08
2023-05-07T22:24:32.715Z,5.87
2023-05-07T22:26:59.314Z,5.82
2023-05-07T22:29:25.913Z,5.77
2023-05-07T22:31:52.596Z,5.81
2023-05-07T22:34:19.214Z,6.12
2023-05-07T22:36:45.924Z,5.78
2023-05-07T22:39:12.634Z,6.10
2023-05-07T22:41:39.131Z,5.69
2023-05-07T22:44:06.460Z,6.34
2023-05-07T22:46:33.325Z,6.47
2023-05-07T22:49:00.232Z,7.09
2023-05-07T22:51:27.486Z,7.47
2023-05-07T22:53:54.285Z,7.49
2023-05-07T22:56:21.048Z,7.99
2023-05-07T22:58:49.370Z,8.10
2023-05-07T23:01:18.750Z,8.57
2023-05-07T23:03:45.663Z,9.21
2023-05-07T23:06:12.780Z,9.22
2023-05-07T23:08:39.476Z,9.63
2023-05-07T23:11:06.119Z,9.45
2023-05-07T23:13:32.732Z,10.31
2023-05-07T23:15:59.267Z,10.01
2023-05-07T23:18:27.937Z,10.41
2023-05-07T23:20:54.712Z,11.18
2023-05-07T23:23:21.418Z,11.13
2023-05-07T23:25:52.482Z,11.27
2023-05-07T23:28:19.321Z,11.46
2023-05-07T23:30:46.296Z,11.52
2023-05-07T23:33:12.977Z,11.21
2023-05-07T23:35:39.700Z,11.52
2023-05-07T23:38:06.295Z,11.16
2023-05-07T23:40:33.267Z,11.63
2023-05-07T23:42:59.920Z,11.55
2023-05-07T23:45:26.540Z,12.13
2023-05-07T23:47:53.348Z,11.91
2023-05-07T23:50:20.487Z,12.14
2023-05-07T23:52:47.146Z,12.06
2023-05-07T23:55:16.409Z,12.48
2023-05-07T23:57:43.087Z,12.21
